sensor_id;sensor_type;location;lat;lon;timestamp;temperature;humidity
38183;DHT22;23991;52.430;10.586;2023-02-20T00:02:14;5.90;81.10
38183;DHT22;23991;52.430;10.586;2023-02-20T00:04:40;5.90;81.10
38183;DHT22;23991;52.430;10.586;2023-02-20T00:07:06;5.90;81.10
38183;DHT22;23991;52.430;10.586;2023-02-20T00:09:31;5.80;81.20
38183;DHT22;23991;52.430;10.586;2023-02-20T00:11:57;5.90;81.30
38183;DHT22;23991;52.430;10.586;2023-02-20T00:14:22;5.90;81.30
38183;DHT22;23991;52.430;10.586;2023-02-20T00:16:48;5.90;81.50
38183;DHT22;23991;52.430;10.586;2023-02-20T00:19:14;5.90;81.60
38183;DHT22;23991;52.430;10.586;2023-02-20T00:21:47;5.90;81.70
38183;DHT22;23991;52.430;10.586;2023-02-20T00:24:13;5.90;81.80
38183;DHT22;23991;52.430;10.586;2023-02-20T00:26:46;5.90;81.90
38183;DHT22;23991;52.430;10.586;2023-02-20T00:29:14;5.90;82.00
38183;DHT22;23991;52.430;10.586;2023-02-20T00:31:40;5.90;82.10
38183;DHT22;23991;52.430;10.586;2023-02-20T00:34:06;6.00;82.20
38183;DHT22;23991;52.430;10.586;2023-02-20T00:36:31;6.00;82.40
38183;DHT22;23991;52.430;10.586;2023-02-20T00:38:57;6.00;82.60
38183;DHT22;23991;52.430;10.586;2023-02-20T00:41:22;6.00;82.60
38183;DHT22;23991;52.430;10.586;2023-02-20T00:43:48;6.00;82.70
38183;DHT22;23991;52.430;10.586;2023-02-20T00:46:14;6.00;82.80
38183;DHT22;23991;52.430;10.586;2023-02-20T00:48:39;6.10;82.90
38183;DHT22;23991;52.430;10.586;2023-02-20T00:51:05;6.10;83.00
38183;DHT22;23991;52.430;10.586;2023-02-20T00:53:30;6.10;83.10
38183;DHT22;23991;52.430;10.586;2023-02-20T00:55:56;6.10;83.20
38183;DHT22;23991;52.430;10.586;2023-02-20T00:58:21;6.10;83.30
38183;DHT22;23991;52.430;10.586;2023-02-20T01:00:47;6.10;83.30
38183;DHT22;23991;52.430;10.586;2023-02-20T01:03:12;6.10;83.40
38183;DHT22;23991;52.430;10.586;2023-02-20T01:05:38;6.10;83.30
38183;DHT22;23991;52.430;10.586;2023-02-20T01:08:04;6.20;83.40
38183;DHT22;23991;52.430;10.586;2023-02-20T01:10:29;6.10;83.40
38183;DHT22;23991;52.430;10.586;2023-02-20T01:12:55;6.20;83.40
38183;DHT22;23991;52.430;10.586;2023-02-20T01:15:20;6.20;83.50
38183;DHT22;23991;52.430;10.586;2023-02-20T01:17:46;6.10;83.40
38183;DHT22;23991;52.430;10.586;2023-02-20T01:20:12;6.10;83.40
38183;DHT22;23991;52.430;10.586;2023-02-20T01:22:37;6.20;83.40
38183;DHT22;23991;52.430;10.586;2023-02-20T01:25:03;6.20;83.40
38183;DHT22;23991;52.430;10.586;2023-02-20T01:27:29;6.10;83.40
38183;DHT22;23991;52.430;10.586;2023-02-20T01:29:54;6.20;83.40
38183;DHT22;23991;52.430;10.586;2023-02-20T01:32:20;6.20;83.40
38183;DHT22;23991;52.430;10.586;2023-02-20T01:34:45;6.20;83.50
38183;DHT22;23991;52.430;10.586;2023-02-20T01:37:13;6.20;83.40
38183;DHT22;23991;52.430;10.586;2023-02-20T01:39:39;6.30;83.40
38183;DHT22;23991;52.430;10.586;2023-02-20T01:42:07;6.20;83.30
38183;DHT22;23991;52.430;10.586;2023-02-20T01:44:35;6.20;83.30
38183;DHT22;23991;52.430;10.586;2023-02-20T01:47:06;6.30;83.30
38183;DHT22;23991;52.430;10.586;2023-02-20T01:49:36;6.30;83.20
38183;DHT22;23991;52.430;10.586;2023-02-20T01:52:18;6.30;83.20
38183;DHT22;23991;52.430;10.586;2023-02-20T01:57:35;6.30;83.00
38183;DHT22;23991;52.430;10.586;2023-02-20T02:00:10;6.30;82.80
38183;DHT22;23991;52.430;10.586;2023-02-20T02:02:39;6.30;82.70
38183;DHT22;23991;52.430;10.586;2023-02-20T02:05:08;6.30;82.70
38183;DHT22;23991;52.430;10.586;2023-02-20T02:07:34;6.30;82.60
38183;DHT22;23991;52.430;10.586;2023-02-20T02:10:06;6.30;82.60
38183;DHT22;23991;52.430;10.586;2023-02-20T02:12:32;6.30;82.50
38183;DHT22;23991;52.430;10.586;2023-02-20T02:14:58;6.30;82.50
38183;DHT22;23991;52.430;10.586;2023-02-20T02:21:10;6.30;82.30
38183;DHT22;23991;52.430;10.586;2023-02-20T02:26:01;6.30;82.20
38183;DHT22;23991;52.430;10.586;2023-02-20T02:31:46;6.30;82.20
38183;DHT22;23991;52.430;10.586;2023-02-20T02:39:37;6.30;82.10
38183;DHT22;23991;52.430;10.586;2023-02-20T02:42:13;6.30;81.90
38183;DHT22;23991;52.430;10.586;2023-02-20T02:47:37;6.20;82.00
38183;DHT22;23991;52.430;10.586;2023-02-20T02:50:56;6.20;81.90
38183;DHT22;23991;52.430;10.586;2023-02-20T02:52:56;6.30;81.90
38183;DHT22;23991;52.430;10.586;2023-02-20T02:55:28;6.30;81.90
38183;DHT22;23991;52.430;10.586;2023-02-20T02:57:54;6.30;81.80
38183;DHT22;23991;52.430;10.586;2023-02-20T03:00:27;6.30;81.70
38183;DHT22;23991;52.430;10.586;2023-02-20T03:03:10;6.30;81.60
38183;DHT22;23991;52.430;10.586;2023-02-20T03:05:49;6.30;81.60
38183;DHT22;23991;52.430;10.586;2023-02-20T03:08:27;6.30;81.50
38183;DHT22;23991;52.430;10.586;2023-02-20T03:11:06;6.30;81.40
38183;DHT22;23991;52.430;10.586;2023-02-20T03:13:38;6.30;81.40
38183;DHT22;23991;52.430;10.586;2023-02-20T03:16:31;6.30;81.40
38183;DHT22;23991;52.430;10.586;2023-02-20T03:19:01;6.30;81.50
38183;DHT22;23991;52.430;10.586;2023-02-20T03:21:31;6.30;81.50
38183;DHT22;23991;52.430;10.586;2023-02-20T03:24:00;6.30;81.50
38183;DHT22;23991;52.430;10.586;2023-02-20T03:26:32;6.30;81.50
38183;DHT22;23991;52.430;10.586;2023-02-20T03:29:04;6.30;81.50
38183;DHT22;23991;52.430;10.586;2023-02-20T03:31:38;6.30;81.50
38183;DHT22;23991;52.430;10.586;2023-02-20T03:34:13;6.30;81.40
38183;DHT22;23991;52.430;10.586;2023-02-20T03:37:06;6.30;81.50
38183;DHT22;23991;52.430;10.586;2023-02-20T03:39:57;6.30;81.50
38183;DHT22;23991;52.430;10.586;2023-02-20T03:42:45;6.30;81.50
38183;DHT22;23991;52.430;10.586;2023-02-20T03:45:31;6.30;81.50
38183;DHT22;23991;52.430;10.586;2023-02-20T03:48:03;6.40;81.70
38183;DHT22;23991;52.430;10.586;2023-02-20T03:50:31;6.40;81.70
38183;DHT22;23991;52.430;10.586;2023-02-20T03:53:16;6.40;81.70
38183;DHT22;23991;52.430;10.586;2023-02-20T03:55:41;6.40;81.80
38183;DHT22;23991;52.430;10.586;2023-02-20T03:58:09;6.40;81.70
38183;DHT22;23991;52.430;10.586;2023-02-20T04:00:40;6.40;81.80
38183;DHT22;23991;52.430;10.586;2023-02-20T04:03:11;6.40;81.80
38183;DHT22;23991;52.430;10.586;2023-02-20T04:05:42;6.40;81.90
38183;DHT22;23991;52.430;10.586;2023-02-20T04:08:26;6.40;81.90
38183;DHT22;23991;52.430;10.586;2023-02-20T04:11:02;6.40;81.90
38183;DHT22;23991;52.430;10.586;2023-02-20T04:13:29;6.40;81.90
38183;DHT22;23991;52.430;10.586;2023-02-20T04:15:58;6.40;81.90
38183;DHT22;23991;52.430;10.586;2023-02-20T04:18:24;6.40;81.80
38183;DHT22;23991;52.430;10.586;2023-02-20T04:20:54;6.40;81.70
38183;DHT22;23991;52.430;10.586;2023-02-20T04:23:22;6.40;81.70
38183;DHT22;23991;52.430;10.586;2023-02-20T04:26:11;6.40;81.70
38183;DHT22;23991;52.430;10.586;2023-02-20T04:28:37;6.40;81.60
38183;DHT22;23991;52.430;10.586;2023-02-20T04:31:03;6.50;81.70
38183;DHT22;23991;52.430;10.586;2023-02-20T04:33:29;6.50;81.60
38183;DHT22;23991;52.430;10.586;2023-02-20T04:35:54;6.50;81.60
38183;DHT22;23991;52.430;10.586;2023-02-20T04:38:22;6.50;81.60
38183;DHT22;23991;52.430;10.586;2023-02-20T04:40:48;6.50;81.70
38183;DHT22;23991;52.430;10.586;2023-02-20T04:43:15;6.40;81.70
38183;DHT22;23991;52.430;10.586;2023-02-20T04:45:40;6.40;81.70
38183;DHT22;23991;52.430;10.586;2023-02-20T04:48:06;6.40;81.70
38183;DHT22;23991;52.430;10.586;2023-02-20T04:50:33;6.50;81.70
38183;DHT22;23991;52.430;10.586;2023-02-20T04:52:59;6.40;81.80
38183;DHT22;23991;52.430;10.586;2023-02-20T04:55:25;6.40;81.90
38183;DHT22;23991;52.430;10.586;2023-02-20T04:57:51;6.50;81.90
38183;DHT22;23991;52.430;10.586;2023-02-20T05:00:18;6.50;81.90
38183;DHT22;23991;52.430;10.586;2023-02-20T05:02:45;6.50;81.90
38183;DHT22;23991;52.430;10.586;2023-02-20T05:05:22;6.50;81.80
38183;DHT22;23991;52.430;10.586;2023-02-20T05:07:52;6.50;81.90
38183;DHT22;23991;52.430;10.586;2023-02-20T05:10:19;6.50;81.90
38183;DHT22;23991;52.430;10.586;2023-02-20T05:12:46;6.50;81.90
38183;DHT22;23991;52.430;10.586;2023-02-20T05:15:13;6.60;81.80
38183;DHT22;23991;52.430;10.586;2023-02-20T05:17:38;6.50;81.80
38183;DHT22;23991;52.430;10.586;2023-02-20T05:20:06;6.50;81.70
38183;DHT22;23991;52.430;10.586;2023-02-20T05:22:31;6.50;81.70
38183;DHT22;23991;52.430;10.586;2023-02-20T05:24:57;6.60;81.60
38183;DHT22;23991;52.430;10.586;2023-02-20T05:27:24;6.50;81.50
38183;DHT22;23991;52.430;10.586;2023-02-20T05:29:53;6.60;81.50
38183;DHT22;23991;52.430;10.586;2023-02-20T05:32:20;6.60;81.50
38183;DHT22;23991;52.430;10.586;2023-02-20T05:34:46;6.60;81.40
38183;DHT22;23991;52.430;10.586;2023-02-20T05:37:14;6.60;81.40
38183;DHT22;23991;52.430;10.586;2023-02-20T05:39:40;6.60;81.50
38183;DHT22;23991;52.430;10.586;2023-02-20T05:42:06;6.60;81.50
38183;DHT22;23991;52.430;10.586;2023-02-20T05:44:32;6.60;81.50
38183;DHT22;23991;52.430;10.586;2023-02-20T05:46:57;6.60;81.50
38183;DHT22;23991;52.430;10.586;2023-02-20T05:49:23;6.60;81.50
38183;DHT22;23991;52.430;10.586;2023-02-20T05:51:49;6.60;81.60
38183;DHT22;23991;52.430;10.586;2023-02-20T05:54:15;6.60;81.60
38183;DHT22;23991;52.430;10.586;2023-02-20T05:56:42;6.60;81.60
38183;DHT22;23991;52.430;10.586;2023-02-20T05:59:08;6.60;81.60
38183;DHT22;23991;52.430;10.586;2023-02-20T06:01:34;6.60;81.70
38183;DHT22;23991;52.430;10.586;2023-02-20T06:04:00;6.60;81.70
38183;DHT22;23991;52.430;10.586;2023-02-20T06:06:35;6.60;81.70
38183;DHT22;23991;52.430;10.586;2023-02-20T06:09:01;6.70;81.70
38183;DHT22;23991;52.430;10.586;2023-02-20T06:11:26;6.70;81.60
38183;DHT22;23991;52.430;10.586;2023-02-20T06:13:52;6.70;81.50
38183;DHT22;23991;52.430;10.586;2023-02-20T06:16:24;6.70;81.60
38183;DHT22;23991;52.430;10.586;2023-02-20T06:18:54;6.70;81.60
38183;DHT22;23991;52.430;10.586;2023-02-20T06:21:20;6.80;81.50
38183;DHT22;23991;52.430;10.586;2023-02-20T06:23:48;6.80;81.50
38183;DHT22;23991;52.430;10.586;2023-02-20T06:26:18;6.80;81.50
38183;DHT22;23991;52.430;10.586;2023-02-20T06:28:44;6.80;81.50
38183;DHT22;23991;52.430;10.586;2023-02-20T06:31:13;6.80;81.40
38183;DHT22;23991;52.430;10.586;2023-02-20T06:33:38;6.80;81.40
38183;DHT22;23991;52.430;10.586;2023-02-20T06:36:04;6.80;81.40
38183;DHT22;23991;52.430;10.586;2023-02-20T06:38:30;6.90;81.30
38183;DHT22;23991;52.430;10.586;2023-02-20T06:40:56;7.00;81.10
38183;DHT22;23991;52.430;10.586;2023-02-20T06:43:21;7.00;80.80
38183;DHT22;23991;52.430;10.586;2023-02-20T06:45:47;7.00;80.90
38183;DHT22;23991;52.430;10.586;2023-02-20T06:48:13;7.00;80.90
38183;DHT22;23991;52.430;10.586;2023-02-20T06:50:40;6.90;80.90
38183;DHT22;23991;52.430;10.586;2023-02-20T06:53:06;7.00;81.00
38183;DHT22;23991;52.430;10.586;2023-02-20T06:55:32;7.10;80.80
38183;DHT22;23991;52.430;10.586;2023-02-20T06:57:57;7.10;80.70
38183;DHT22;23991;52.430;10.586;2023-02-20T07:00:23;7.20;80.40
38183;DHT22;23991;52.430;10.586;2023-02-20T07:02:49;7.20;80.20
38183;DHT22;23991;52.430;10.586;2023-02-20T07:05:14;7.30;80.10
38183;DHT22;23991;52.430;10.586;2023-02-20T07:07:40;7.30;79.80
38183;DHT22;23991;52.430;10.586;2023-02-20T07:10:06;7.40;79.50
38183;DHT22;23991;52.430;10.586;2023-02-20T07:12:32;7.40;79.30
38183;DHT22;23991;52.430;10.586;2023-02-20T07:14:58;7.50;79.00
38183;DHT22;23991;52.430;10.586;2023-02-20T07:17:24;7.60;78.90
38183;DHT22;23991;52.430;10.586;2023-02-20T07:19:50;7.60;78.50
38183;DHT22;23991;52.430;10.586;2023-02-20T07:22:16;7.70;78.20
38183;DHT22;23991;52.430;10.586;2023-02-20T07:24:41;7.80;78.00
38183;DHT22;23991;52.430;10.586;2023-02-20T07:27:08;7.80;77.50
38183;DHT22;23991;52.430;10.586;2023-02-20T07:29:36;7.90;77.30
38183;DHT22;23991;52.430;10.586;2023-02-20T07:32:02;7.90;77.10
38183;DHT22;23991;52.430;10.586;2023-02-20T07:34:27;8.00;76.80
38183;DHT22;23991;52.430;10.586;2023-02-20T07:36:53;8.10;76.80
38183;DHT22;23991;52.430;10.586;2023-02-20T07:39:18;8.10;76.30
38183;DHT22;23991;52.430;10.586;2023-02-20T07:41:44;8.20;76.10
38183;DHT22;23991;52.430;10.586;2023-02-20T07:44:11;8.30;75.80
38183;DHT22;23991;52.430;10.586;2023-02-20T07:46:37;8.40;75.60
38183;DHT22;23991;52.430;10.586;2023-02-20T07:49:04;8.40;75.30
38183;DHT22;23991;52.430;10.586;2023-02-20T07:51:29;8.50;74.90
38183;DHT22;23991;52.430;10.586;2023-02-20T07:53:55;8.60;74.80
38183;DHT22;23991;52.430;10.586;2023-02-20T07:56:21;8.70;74.30
38183;DHT22;23991;52.430;10.586;2023-02-20T07:58:48;8.80;74.00
38183;DHT22;23991;52.430;10.586;2023-02-20T08:01:14;8.90;73.80
38183;DHT22;23991;52.430;10.586;2023-02-20T08:03:39;9.00;73.60
38183;DHT22;23991;52.430;10.586;2023-02-20T08:06:05;9.10;73.10
38183;DHT22;23991;52.430;10.586;2023-02-20T08:08:31;9.20;72.50
38183;DHT22;23991;52.430;10.586;2023-02-20T08:10:57;9.30;72.00
38183;DHT22;23991;52.430;10.586;2023-02-20T08:13:22;9.30;71.90
38183;DHT22;23991;52.430;10.586;2023-02-20T08:15:48;9.40;71.50
38183;DHT22;23991;52.430;10.586;2023-02-20T08:18:14;9.50;70.80
38183;DHT22;23991;52.430;10.586;2023-02-20T08:20:40;9.70;70.60
38183;DHT22;23991;52.430;10.586;2023-02-20T08:23:14;9.80;70.00
38183;DHT22;23991;52.430;10.586;2023-02-20T08:25:40;9.80;69.90
38183;DHT22;23991;52.430;10.586;2023-02-20T08:28:05;9.90;69.50
38183;DHT22;23991;52.430;10.586;2023-02-20T08:30:31;9.90;69.10
38183;DHT22;23991;52.430;10.586;2023-02-20T08:32:56;10.00;69.00
38183;DHT22;23991;52.430;10.586;2023-02-20T08:35:22;10.00;68.80
38183;DHT22;23991;52.430;10.586;2023-02-20T08:37:49;10.10;68.20
38183;DHT22;23991;52.430;10.586;2023-02-20T08:40:14;10.30;67.90
38183;DHT22;23991;52.430;10.586;2023-02-20T08:42:40;10.40;67.80
38183;DHT22;23991;52.430;10.586;2023-02-20T08:45:07;10.50;67.40
38183;DHT22;23991;52.430;10.586;2023-02-20T08:47:32;10.60;66.90
38183;DHT22;23991;52.430;10.586;2023-02-20T08:49:58;10.60;66.50
38183;DHT22;23991;52.430;10.586;2023-02-20T08:52:24;10.80;66.10
38183;DHT22;23991;52.430;10.586;2023-02-20T08:54:50;10.80;65.40
38183;DHT22;23991;52.430;10.586;2023-02-20T08:57:16;11.00;65.00
38183;DHT22;23991;52.430;10.586;2023-02-20T08:59:42;11.20;64.30
38183;DHT22;23991;52.430;10.586;2023-02-20T09:02:16;11.50;63.90
38183;DHT22;23991;52.430;10.586;2023-02-20T09:04:43;11.60;62.80
38183;DHT22;23991;52.430;10.586;2023-02-20T09:07:09;11.70;62.40
38183;DHT22;23991;52.430;10.586;2023-02-20T09:09:35;11.80;62.30
38183;DHT22;23991;52.430;10.586;2023-02-20T09:12:01;11.60;62.50
38183;DHT22;23991;52.430;10.586;2023-02-20T09:14:26;11.50;63.40
38183;DHT22;23991;52.430;10.586;2023-02-20T09:16:52;11.50;63.00
38183;DHT22;23991;52.430;10.586;2023-02-20T09:19:18;11.50;62.80
38183;DHT22;23991;52.430;10.586;2023-02-20T09:21:46;11.40;62.90
38183;DHT22;23991;52.430;10.586;2023-02-20T09:24:11;11.60;63.20
38183;DHT22;23991;52.430;10.586;2023-02-20T09:26:37;11.70;63.30
38183;DHT22;23991;52.430;10.586;2023-02-20T09:29:02;11.70;62.60
38183;DHT22;23991;52.430;10.586;2023-02-20T09:31:28;11.80;62.70
38183;DHT22;23991;52.430;10.586;2023-02-20T09:33:54;11.50;63.10
38183;DHT22;23991;52.430;10.586;2023-02-20T09:36:19;11.50;63.40
38183;DHT22;23991;52.430;10.586;2023-02-20T09:38:45;11.60;63.30
38183;DHT22;23991;52.430;10.586;2023-02-20T09:46:48;12.10;63.10
38183;DHT22;23991;52.430;10.586;2023-02-20T09:49:19;12.20;62.10
38183;DHT22;23991;52.430;10.586;2023-02-20T09:51:52;12.50;61.40
38183;DHT22;23991;52.430;10.586;2023-02-20T09:54:35;12.80;60.00
38183;DHT22;23991;52.430;10.586;2023-02-20T09:57:05;13.00;60.00
38183;DHT22;23991;52.430;10.586;2023-02-20T10:02:28;13.00;59.70
38183;DHT22;23991;52.430;10.586;2023-02-20T10:04:56;12.80;59.80
38183;DHT22;23991;52.430;10.586;2023-02-20T10:07:34;12.80;59.90
38183;DHT22;23991;52.430;10.586;2023-02-20T10:10:17;12.30;61.50
38183;DHT22;23991;52.430;10.586;2023-02-20T10:15:41;12.20;62.60
38183;DHT22;23991;52.430;10.586;2023-02-20T10:21:00;11.90;63.40
38183;DHT22;23991;52.430;10.586;2023-02-20T10:23:47;11.80;63.80
38183;DHT22;23991;52.430;10.586;2023-02-20T10:26:21;11.80;64.30
38183;DHT22;23991;52.430;10.586;2023-02-20T10:28:49;11.70;64.70
38183;DHT22;23991;52.430;10.586;2023-02-20T10:31:38;11.70;64.60
38183;DHT22;23991;52.430;10.586;2023-02-20T10:34:09;11.60;65.40
38183;DHT22;23991;52.430;10.586;2023-02-20T10:36:36;11.60;65.70
38183;DHT22;23991;52.430;10.586;2023-02-20T10:39:12;11.60;65.80
38183;DHT22;23991;52.430;10.586;2023-02-20T10:41:45;11.50;66.20
38183;DHT22;23991;52.430;10.586;2023-02-20T10:46:55;11.60;66.20
38183;DHT22;23991;52.430;10.586;2023-02-20T10:52:01;11.60;66.40
38183;DHT22;23991;52.430;10.586;2023-02-20T10:54:46;11.60;66.60
38183;DHT22;23991;52.430;10.586;2023-02-20T10:57:29;11.60;66.40
38183;DHT22;23991;52.430;10.586;2023-02-20T11:01:03;11.50;66.90
38183;DHT22;23991;52.430;10.586;2023-02-20T11:03:03;11.60;66.90
38183;DHT22;23991;52.430;10.586;2023-02-20T11:05:33;11.40;67.50
38183;DHT22;23991;52.430;10.586;2023-02-20T11:08:00;11.50;67.40
38183;DHT22;23991;52.430;10.586;2023-02-20T11:10:26;11.40;67.90
38183;DHT22;23991;52.430;10.586;2023-02-20T11:12:56;11.30;68.40
38183;DHT22;23991;52.430;10.586;2023-02-20T11:15:27;11.50;68.40
38183;DHT22;23991;52.430;10.586;2023-02-20T11:17:54;11.40;68.20
38183;DHT22;23991;52.430;10.586;2023-02-20T11:23:05;11.50;68.20
38183;DHT22;23991;52.430;10.586;2023-02-20T11:25:34;11.60;68.30
38183;DHT22;23991;52.430;10.586;2023-02-20T11:28:22;11.60;68.20
38183;DHT22;23991;52.430;10.586;2023-02-20T11:31:03;11.40;68.70
38183;DHT22;23991;52.430;10.586;2023-02-20T11:33:32;11.40;69.00
38183;DHT22;23991;52.430;10.586;2023-02-20T11:36:14;11.40;68.80
38183;DHT22;23991;52.430;10.586;2023-02-20T11:38:40;11.60;68.70
38183;DHT22;23991;52.430;10.586;2023-02-20T11:41:17;11.60;68.60
38183;DHT22;23991;52.430;10.586;2023-02-20T11:43:45;11.40;69.10
38183;DHT22;23991;52.430;10.586;2023-02-20T11:46:18;11.50;69.50
38183;DHT22;23991;52.430;10.586;2023-02-20T11:49:08;11.60;69.10
38183;DHT22;23991;52.430;10.586;2023-02-20T11:51:45;11.50;69.50
38183;DHT22;23991;52.430;10.586;2023-02-20T11:56:58;11.50;69.70
38183;DHT22;23991;52.430;10.586;2023-02-20T12:02:50;11.40;70.40
38183;DHT22;23991;52.430;10.586;2023-02-20T12:05:18;11.30;70.60
38183;DHT22;23991;52.430;10.586;2023-02-20T12:08:19;11.20;70.80
38183;DHT22;23991;52.430;10.586;2023-02-20T12:10:46;11.20;71.30
38183;DHT22;23991;52.430;10.586;2023-02-20T12:13:15;11.20;71.40
38183;DHT22;23991;52.430;10.586;2023-02-20T12:15:43;11.30;71.10
38183;DHT22;23991;52.430;10.586;2023-02-20T12:18:59;11.40;70.90
38183;DHT22;23991;52.430;10.586;2023-02-20T12:24:41;11.50;70.50
38183;DHT22;23991;52.430;10.586;2023-02-20T12:40:50;11.50;70.70
38183;DHT22;23991;52.430;10.586;2023-02-20T12:43:48;11.50;70.50
38183;DHT22;23991;52.430;10.586;2023-02-20T12:46:36;11.40;71.40
38183;DHT22;23991;52.430;10.586;2023-02-20T12:59:54;11.40;72.30
38183;DHT22;23991;52.430;10.586;2023-02-20T13:02:34;11.40;72.30
38183;DHT22;23991;52.430;10.586;2023-02-20T13:05:02;11.20;73.10
38183;DHT22;23991;52.430;10.586;2023-02-20T13:10:17;11.20;73.80
38183;DHT22;23991;52.430;10.586;2023-02-20T13:12:45;11.30;73.80
38183;DHT22;23991;52.430;10.586;2023-02-20T13:15:19;11.40;73.70
38183;DHT22;23991;52.430;10.586;2023-02-20T13:17:52;11.50;73.30
38183;DHT22;23991;52.430;10.586;2023-02-20T13:20:23;11.60;72.90
38183;DHT22;23991;52.430;10.586;2023-02-20T13:25:44;11.40;73.50
38183;DHT22;23991;52.430;10.586;2023-02-20T13:31:06;11.40;73.60
38183;DHT22;23991;52.430;10.586;2023-02-20T13:33:31;11.50;73.50
38183;DHT22;23991;52.430;10.586;2023-02-20T13:35:57;11.50;73.50
38183;DHT22;23991;52.430;10.586;2023-02-20T13:38:27;11.40;73.60
38183;DHT22;23991;52.430;10.586;2023-02-20T13:43:24;11.50;73.70
38183;DHT22;23991;52.430;10.586;2023-02-20T13:54:27;11.40;74.00
38183;DHT22;23991;52.430;10.586;2023-02-20T13:56:45;11.60;73.30
38183;DHT22;23991;52.430;10.586;2023-02-20T13:59:17;11.60;73.10
38183;DHT22;23991;52.430;10.586;2023-02-20T14:02:35;11.40;73.60
38183;DHT22;23991;52.430;10.586;2023-02-20T14:05:30;11.30;73.80
38183;DHT22;23991;52.430;10.586;2023-02-20T14:07:57;11.20;74.40
38183;DHT22;23991;52.430;10.586;2023-02-20T14:10:27;11.20;74.60
38183;DHT22;23991;52.430;10.586;2023-02-20T14:12:56;11.40;74.20
38183;DHT22;23991;52.430;10.586;2023-02-20T14:15:22;11.30;74.40
38183;DHT22;23991;52.430;10.586;2023-02-20T14:17:50;11.30;74.80
38183;DHT22;23991;52.430;10.586;2023-02-20T14:20:30;11.30;74.70
38183;DHT22;23991;52.430;10.586;2023-02-20T14:23:28;11.40;74.80
38183;DHT22;23991;52.430;10.586;2023-02-20T14:25:58;11.30;74.50
38183;DHT22;23991;52.430;10.586;2023-02-20T14:28:25;11.30;74.90
38183;DHT22;23991;52.430;10.586;2023-02-20T14:31:19;11.40;74.60
38183;DHT22;23991;52.430;10.586;2023-02-20T14:33:46;11.50;74.40
38183;DHT22;23991;52.430;10.586;2023-02-20T14:36:20;11.40;74.50
38183;DHT22;23991;52.430;10.586;2023-02-20T14:39:16;11.40;74.70
38183;DHT22;23991;52.430;10.586;2023-02-20T14:41:51;11.40;74.80
38183;DHT22;23991;52.430;10.586;2023-02-20T14:44:17;11.40;75.10
38183;DHT22;23991;52.430;10.586;2023-02-20T14:46:44;11.40;75.20
38183;DHT22;23991;52.430;10.586;2023-02-20T14:49:16;11.50;75.00
38183;DHT22;23991;52.430;10.586;2023-02-20T14:51:46;11.40;75.10
38183;DHT22;23991;52.430;10.586;2023-02-20T14:54:16;11.50;75.00
38183;DHT22;23991;52.430;10.586;2023-02-20T14:56:42;11.60;74.50
38183;DHT22;23991;52.430;10.586;2023-02-20T14:59:36;11.60;74.80
38183;DHT22;23991;52.430;10.586;2023-02-20T15:02:24;11.50;75.30
38183;DHT22;23991;52.430;10.586;2023-02-20T15:05:01;11.40;75.30
38183;DHT22;23991;52.430;10.586;2023-02-20T15:07:28;11.50;75.50
38183;DHT22;23991;52.430;10.586;2023-02-20T15:09:59;11.60;75.30
38183;DHT22;23991;52.430;10.586;2023-02-20T15:12:37;11.60;75.10
38183;DHT22;23991;52.430;10.586;2023-02-20T15:15:13;11.50;75.10
38183;DHT22;23991;52.430;10.586;2023-02-20T15:17:41;11.60;75.20
38183;DHT22;23991;52.430;10.586;2023-02-20T15:20:19;11.60;75.10
38183;DHT22;23991;52.430;10.586;2023-02-20T15:22:45;11.60;75.30
38183;DHT22;23991;52.430;10.586;2023-02-20T15:25:29;11.40;75.80
38183;DHT22;23991;52.430;10.586;2023-02-20T15:28:13;11.50;76.00
38183;DHT22;23991;52.430;10.586;2023-02-20T15:33:30;11.40;75.90
38183;DHT22;23991;52.430;10.586;2023-02-20T15:35:56;11.30;76.20
38183;DHT22;23991;52.430;10.586;2023-02-20T15:38:26;11.40;76.00
38183;DHT22;23991;52.430;10.586;2023-02-20T15:40:55;11.40;76.30
38183;DHT22;23991;52.430;10.586;2023-02-20T15:43:22;11.40;76.10
38183;DHT22;23991;52.430;10.586;2023-02-20T15:45:47;11.50;76.20
38183;DHT22;23991;52.430;10.586;2023-02-20T15:48:13;11.30;76.40
38183;DHT22;23991;52.430;10.586;2023-02-20T15:50:40;11.30;76.80
38183;DHT22;23991;52.430;10.586;2023-02-20T15:53:06;11.40;76.60
38183;DHT22;23991;52.430;10.586;2023-02-20T15:55:33;11.30;77.00
38183;DHT22;23991;52.430;10.586;2023-02-20T15:58:00;11.30;76.80
38183;DHT22;23991;52.430;10.586;2023-02-20T16:00:31;11.30;76.80
38183;DHT22;23991;52.430;10.586;2023-02-20T16:02:58;11.20;76.90
38183;DHT22;23991;52.430;10.586;2023-02-20T16:05:24;11.10;77.30
38183;DHT22;23991;52.430;10.586;2023-02-20T16:07:50;11.20;77.60
38183;DHT22;23991;52.430;10.586;2023-02-20T16:10:17;11.20;77.40
38183;DHT22;23991;52.430;10.586;2023-02-20T16:12:43;11.30;77.30
38183;DHT22;23991;52.430;10.586;2023-02-20T16:15:14;11.40;76.80
38183;DHT22;23991;52.430;10.586;2023-02-20T16:17:40;11.40;76.80
38183;DHT22;23991;52.430;10.586;2023-02-20T16:20:14;11.30;76.90
38183;DHT22;23991;52.430;10.586;2023-02-20T16:22:40;11.30;77.40
38183;DHT22;23991;52.430;10.586;2023-02-20T16:25:06;11.30;77.50
38183;DHT22;23991;52.430;10.586;2023-02-20T16:27:32;11.30;77.70
38183;DHT22;23991;52.430;10.586;2023-02-20T16:29:58;11.20;77.70
38183;DHT22;23991;52.430;10.586;2023-02-20T16:32:27;11.10;78.30
38183;DHT22;23991;52.430;10.586;2023-02-20T16:34:54;10.90;78.90
38183;DHT22;23991;52.430;10.586;2023-02-20T16:37:20;10.80;79.60
38183;DHT22;23991;52.430;10.586;2023-02-20T16:39:46;10.80;79.80
38183;DHT22;23991;52.430;10.586;2023-02-20T16:44:47;10.80;79.80
38183;DHT22;23991;52.430;10.586;2023-02-20T16:47:18;10.80;79.80
38183;DHT22;23991;52.430;10.586;2023-02-20T16:49:44;10.80;79.80
38183;DHT22;23991;52.430;10.586;2023-02-20T16:54:48;10.80;79.60
38183;DHT22;23991;52.430;10.586;2023-02-20T16:57:15;10.80;79.90
38183;DHT22;23991;52.430;10.586;2023-02-20T16:59:41;10.60;80.50
38183;DHT22;23991;52.430;10.586;2023-02-20T17:02:09;10.60;80.60
38183;DHT22;23991;52.430;10.586;2023-02-20T17:04:38;10.50;80.70
38183;DHT22;23991;52.430;10.586;2023-02-20T17:07:03;10.50;81.10
38183;DHT22;23991;52.430;10.586;2023-02-20T17:09:30;10.40;81.20
38183;DHT22;23991;52.430;10.586;2023-02-20T17:11:56;10.40;81.40
38183;DHT22;23991;52.430;10.586;2023-02-20T17:14:22;10.30;81.60
38183;DHT22;23991;52.430;10.586;2023-02-20T17:16:48;10.20;82.00
38183;DHT22;23991;52.430;10.586;2023-02-20T17:19:15;10.30;82.20
38183;DHT22;23991;52.430;10.586;2023-02-20T17:21:45;10.20;82.30
38183;DHT22;23991;52.430;10.586;2023-02-20T17:24:10;10.30;82.50
38183;DHT22;23991;52.430;10.586;2023-02-20T17:26:36;10.20;82.60